createdAt,value
2019-02-18T00:01:22.704Z,97597.05
2019-02-18T00:04:18.182Z,97599.36
2019-02-18T00:07:15.050Z,97598.69
2019-02-18T00:10:11.484Z,97601.47
2019-02-18T00:13:06.053Z,97594.60
2019-02-18T00:16:02.068Z,97594.39
2019-02-18T00:18:57.618Z,97593.34
2019-02-18T00:21:54.158Z,97594.79
2019-02-18T00:24:50.859Z,97595.58
2019-02-18T00:27:47.705Z,97598.06
2019-02-18T00:30:44.394Z,97598.64
2019-02-18T00:33:39.873Z,97592.69
2019-02-18T00:36:36.224Z,97595.09
2019-02-18T00:39:31.194Z,97597.68
2019-02-18T00:42:28.102Z,97592.98
2019-02-18T00:45:24.577Z,97591.47
2019-02-18T00:48:21.290Z,97592.63
2019-02-18T00:51:18.302Z,97590.70
2019-02-18T00:54:13.680Z,97588.95
2019-02-18T00:57:10.396Z,97588.50
2019-02-18T01:00:06.464Z,97589.74
2019-02-18T01:03:01.471Z,97589.28
2019-02-18T01:05:58.203Z,97596.25
2019-02-18T01:08:54.437Z,97598.28
2019-02-18T01:11:52.202Z,97594.05
2019-02-18T01:14:48.499Z,97589.06
2019-02-18T01:17:43.783Z,97587.44
2019-02-18T01:20:40.277Z,97582.38
2019-02-18T01:23:36.723Z,97581.41
2019-02-18T01:26:32.740Z,97579.66
2019-02-18T01:29:28.257Z,97580.16
2019-02-18T01:32:25.054Z,97567.20
2019-02-18T01:35:20.441Z,97569.52
2019-02-18T01:38:17.156Z,97563.40
2019-02-18T01:41:12.777Z,97573.19
2019-02-18T01:44:09.537Z,97566.37
2019-02-18T01:47:06.810Z,97559.77
2019-02-18T01:50:03.329Z,97576.24
2019-02-18T01:52:59.727Z,97560.16
2019-02-18T01:55:55.427Z,97554.03
2019-02-18T01:58:52.097Z,97548.09
2019-02-18T02:01:47.841Z,97543.67
2019-02-18T02:04:45.337Z,97545.20
2019-02-18T02:07:40.846Z,97537.46
2019-02-18T02:10:36.991Z,97541.39
2019-02-18T02:13:50.341Z,97539.46
2019-02-18T02:16:45.793Z,97537.26
2019-02-18T02:19:42.312Z,97535.05
2019-02-18T02:22:37.155Z,97529.11
2019-02-18T02:25:34.205Z,97528.64
2019-02-18T02:28:29.673Z,97528.14
2019-02-18T02:31:26.191Z,97521.92
2019-02-18T02:34:21.672Z,97519.72
2019-02-18T02:37:19.132Z,97514.55
2019-02-18T02:40:15.576Z,97514.83
2019-02-18T02:43:11.158Z,97516.86
2019-02-18T02:46:07.883Z,97514.16
2019-02-18T02:49:02.322Z,97507.09
2019-02-18T02:52:00.099Z,97502.48
2019-02-18T02:54:56.659Z,97505.26
2019-02-18T02:57:53.162Z,97503.55
2019-02-18T03:00:49.878Z,97501.34
2019-02-18T03:03:45.537Z,97503.83
2019-02-18T03:06:41.958Z,97499.60
2019-02-18T03:09:36.620Z,97499.41
2019-02-18T03:12:33.181Z,97496.75
2019-02-18T03:15:30.687Z,97495.59
2019-02-18T03:18:27.181Z,97501.32
2019-02-18T03:21:23.702Z,97496.34
2019-02-18T03:24:18.587Z,97489.66
2019-02-18T03:27:14.627Z,97484.96
2019-02-18T03:30:47.527Z,97484.28
2019-02-18T03:33:45.927Z,97487.55
2019-02-18T03:36:42.651Z,97493.27
2019-02-18T03:39:38.195Z,97488.85
2019-02-18T03:42:33.892Z,97485.63
2019-02-18T03:45:30.316Z,97490.09
2019-02-18T03:48:26.754Z,97494.61
2019-02-18T03:51:24.519Z,97490.19
2019-02-18T03:54:20.176Z,97490.47
2019-02-18T03:57:16.300Z,97494.98
2019-02-18T04:00:11.818Z,97497.27
2019-02-18T04:03:08.054Z,97494.10
2019-02-18T04:06:04.196Z,97499.54
2019-02-18T04:09:00.735Z,97497.73
2019-02-18T04:11:57.219Z,97504.14
2019-02-18T04:14:53.683Z,97502.39
2019-02-18T04:17:50.082Z,97505.38
2019-02-18T04:20:45.446Z,97499.16
2019-02-18T04:23:41.961Z,97500.19
2019-02-18T04:26:38.511Z,97508.23
2019-02-18T04:29:34.345Z,97507.55
2019-02-18T04:32:30.976Z,97505.61
2019-02-18T04:35:27.623Z,97508.78
2019-02-18T04:38:24.325Z,97512.78
2019-02-18T04:41:20.040Z,97509.70
2019-02-18T04:44:16.666Z,97513.43
2019-02-18T04:47:12.743Z,97512.46
2019-02-18T04:50:09.096Z,97504.03
2019-02-18T04:53:05.562Z,97507.20
2019-02-18T04:56:02.990Z,97513.79
2019-02-18T04:58:59.593Z,97509.59
2019-02-18T05:01:55.100Z,97517.05
2019-02-18T05:04:51.626Z,97508.90
2019-02-18T05:07:47.316Z,97506.88
2019-02-18T05:10:43.934Z,97507.16
2019-02-18T05:13:39.639Z,97506.69
2019-02-18T05:16:35.646Z,97507.46
2019-02-18T05:19:33.280Z,97504.01
2019-02-18T05:22:30.084Z,97504.01
2019-02-18T05:25:25.900Z,97499.04
2019-02-18T05:28:22.434Z,97493.10
2019-02-18T05:31:18.989Z,97491.36
2019-02-18T05:34:14.750Z,97493.00
2019-02-18T05:37:11.303Z,97497.10
2019-02-18T05:40:07.006Z,97501.11
2019-02-18T05:43:03.533Z,97501.87
2019-02-18T05:45:59.219Z,97499.67
2019-02-18T05:48:55.958Z,97498.89
2019-02-18T05:51:52.511Z,97492.68
2019-02-18T05:54:49.181Z,97488.48
2019-02-18T05:57:45.959Z,97488.48
2019-02-18T06:00:42.676Z,97486.97
2019-02-18T06:03:39.045Z,97483.24
2019-02-18T06:06:36.080Z,97480.53
2019-02-18T06:09:32.860Z,97483.61
2019-02-18T06:12:28.624Z,97493.66
2019-02-18T06:15:25.035Z,97491.06
2019-02-18T06:18:21.621Z,97488.68
2019-02-18T06:21:19.101Z,97491.94
2019-02-18T06:24:15.853Z,97494.70
2019-02-18T06:27:11.366Z,97498.16
2019-02-18T06:30:08.301Z,97498.62
2019-02-18T06:33:03.812Z,97498.98
2019-02-18T06:36:00.554Z,97504.83
2019-02-18T06:38:57.858Z,97508.46
2019-02-18T06:41:54.048Z,97507.39
2019-02-18T06:44:59.562Z,97505.73
2019-02-18T06:47:57.353Z,97509.73
2019-02-18T06:50:54.110Z,97508.22
2019-02-18T06:53:49.828Z,97511.20
2019-02-18T06:57:00.302Z,97516.64
2019-02-18T07:00:08.831Z,97514.34
2019-02-18T07:03:20.083Z,97517.33
2019-02-18T07:06:31.460Z,97516.56
2019-02-18T07:09:53.534Z,97523.84
2019-02-18T07:13:03.326Z,97511.23
2019-02-18T07:15:59.864Z,97514.92
2019-02-18T07:18:57.460Z,97512.62
2019-02-18T07:21:56.272Z,97511.30
2019-02-18T07:24:51.546Z,97512.00
2019-02-18T07:27:48.018Z,97505.97
2019-02-18T07:30:42.883Z,97510.48
2019-02-18T07:33:38.843Z,97506.58
2019-02-18T07:36:35.047Z,97519.42
2019-02-18T07:39:32.097Z,97518.19
2019-02-18T07:42:27.591Z,97516.67
2019-02-18T07:45:24.375Z,97515.84
2019-02-18T07:48:22.939Z,97515.47
2019-02-18T07:51:18.504Z,97513.48
2019-02-18T07:54:14.835Z,97504.86
2019-02-18T07:57:09.864Z,97503.65
2019-02-18T08:00:06.050Z,97499.81
2019-02-18T08:03:01.668Z,97489.20
2019-02-18T08:05:58.273Z,97500.98
2019-02-18T08:08:59.214Z,97498.28
2019-02-18T08:11:55.786Z,97496.83
2019-02-18T08:14:51.820Z,97492.91
2019-02-18T08:17:47.400Z,97496.14
2019-02-18T08:20:44.070Z,97500.15
2019-02-18T08:23:40.727Z,97497.08
2019-02-18T08:26:36.340Z,97493.31
2019-02-18T08:29:34.119Z,97491.29
2019-02-18T08:32:29.593Z,97503.69
2019-02-18T08:35:26.089Z,97486.98
2019-02-18T08:38:21.810Z,97486.73
2019-02-18T08:41:25.445Z,97485.73
2019-02-18T08:44:22.298Z,97482.98
2019-02-18T08:47:18.974Z,97475.77
2019-02-18T08:50:16.874Z,97475.86
2019-02-18T08:53:11.835Z,97467.53
2019-02-18T08:56:08.583Z,97476.20
2019-02-18T08:59:05.191Z,97472.96
2019-02-18T09:02:01.799Z,97467.70
2019-02-18T09:04:58.407Z,97470.84
2019-02-18T09:07:53.892Z,97472.28
2019-02-18T09:10:51.495Z,97471.84
2019-02-18T09:13:51.982Z,97465.91
2019-02-18T09:16:48.550Z,97464.02
2019-02-18T09:19:46.294Z,97458.07
2019-02-18T09:23:00.746Z,97458.67
2019-02-18T09:26:08.131Z,97462.75
2019-02-18T09:29:03.641Z,97461.46
2019-02-18T09:32:01.261Z,97462.78
2019-02-18T09:35:02.032Z,97466.12
2019-02-18T09:37:54.416Z,97465.31
2019-02-18T09:40:51.668Z,97461.06
2019-02-18T09:43:59.717Z,97459.12
2019-02-18T09:46:56.280Z,97455.30
2019-02-18T09:49:54.940Z,97450.44
2019-02-18T09:52:50.404Z,97447.41
2019-02-18T09:55:46.881Z,97443.07
2019-02-18T09:58:42.585Z,97442.90
2019-02-18T10:01:47.391Z,97438.94
2019-02-18T10:04:50.635Z,97437.64
2019-02-18T10:07:46.374Z,97432.22
2019-02-18T10:10:42.937Z,97438.95
2019-02-18T10:13:39.054Z,97433.13
2019-02-18T10:16:36.638Z,97433.20
2019-02-18T10:19:32.146Z,97427.88
2019-02-18T10:22:28.931Z,97426.77
2019-02-18T10:25:26.177Z,97425.80
2019-02-18T10:28:22.994Z,97423.08
2019-02-18T10:31:19.429Z,97415.19
2019-02-18T10:34:15.252Z,97417.70
2019-02-18T10:37:11.303Z,97420.33
2019-02-18T10:40:06.412Z,97414.33
2019-02-18T10:43:03.164Z,97406.38
2019-02-18T10:45:59.716Z,97407.94
2019-02-18T10:48:57.468Z,97405.00
2019-02-18T10:51:55.223Z,97395.44
2019-02-18T10:54:51.173Z,97405.14
2019-02-18T10:57:48.421Z,97402.19
2019-02-18T11:00:44.914Z,97393.38
2019-02-18T11:03:40.551Z,97395.17
2019-02-18T11:06:36.090Z,97393.87
2019-02-18T11:09:32.616Z,97385.08
2019-02-18T11:12:30.233Z,97376.81
2019-02-18T11:15:26.015Z,97367.84
2019-02-18T11:18:22.327Z,97365.20
2019-02-18T11:21:26.109Z,97361.42
2019-02-18T11:24:22.579Z,97349.19
2019-02-18T11:27:20.415Z,97351.16
2019-02-18T11:30:17.168Z,97346.59
2019-02-18T11:33:13.732Z,97343.63
2019-02-18T11:36:09.906Z,97339.84
2019-02-18T11:39:06.452Z,97330.29
2019-02-18T11:42:03.194Z,97326.77
2019-02-18T11:45:00.925Z,97322.05
2019-02-18T11:47:57.411Z,97319.23
2019-02-18T11:50:52.791Z,97317.69
2019-02-18T11:53:48.861Z,97316.81
2019-02-18T11:56:51.266Z,97311.45
2019-02-18T11:59:47.584Z,97305.41
2019-02-18T12:02:45.056Z,97301.98
2019-02-18T12:05:40.137Z,97296.88
2019-02-18T12:08:36.672Z,97288.32
2019-02-18T12:11:37.811Z,97290.60
2019-02-18T12:14:36.741Z,97283.11
2019-02-18T12:17:43.587Z,97277.73
2019-02-18T12:20:39.356Z,97279.73
2019-02-18T12:23:36.997Z,97273.09
2019-02-18T12:26:32.827Z,97269.88
2019-02-18T12:29:28.843Z,97251.80
2019-02-18T12:32:26.780Z,97254.12
2019-02-18T12:35:30.472Z,97244.83
2019-02-18T12:38:20.085Z,97247.06
2019-02-18T12:41:15.778Z,97241.66
2019-02-18T12:44:12.587Z,97233.72
2019-02-18T12:47:07.368Z,97222.61
2019-02-18T12:50:03.947Z,97219.32
2019-02-18T12:53:00.461Z,97206.66
2019-02-18T12:55:58.327Z,97203.22
2019-02-18T12:58:54.940Z,97196.96
2019-02-18T13:01:49.761Z,97192.03
2019-02-18T13:04:46.256Z,97182.61
2019-02-18T13:07:41.900Z,97182.78
2019-02-18T13:10:39.619Z,97173.61
2019-02-18T13:13:36.073Z,97174.50
2019-02-18T13:16:32.798Z,97174.99
2019-02-18T13:19:28.960Z,97171.69
2019-02-18T13:22:24.381Z,97167.93
2019-02-18T13:25:20.927Z,97167.23
2019-02-18T13:28:16.332Z,97156.40
2019-02-18T13:31:13.671Z,97155.77
2019-02-18T13:34:09.967Z,97149.95
2019-02-18T13:37:06.747Z,97149.28
2019-02-18T13:40:03.212Z,97145.90
2019-02-18T13:42:59.871Z,97146.80
2019-02-18T13:45:57.410Z,97140.92
2019-02-18T13:48:52.924Z,97143.39
2019-02-18T13:51:56.386Z,97141.34
2019-02-18T13:54:45.625Z,97140.17
2019-02-18T13:57:43.378Z,97133.13
2019-02-18T14:00:39.138Z,97135.41
2019-02-18T14:03:35.719Z,97133.88
2019-02-18T14:06:33.508Z,97133.98
2019-02-18T14:09:33.383Z,97132.80
2019-02-18T14:12:30.814Z,97122.27
2019-02-18T14:15:26.896Z,97124.00
2019-02-18T14:18:22.597Z,97123.62
2019-02-18T14:21:19.235Z,97134.25
2019-02-18T14:24:15.710Z,97125.70
2019-02-18T14:27:17.677Z,97126.56
2019-02-18T14:30:18.427Z,97120.61
2019-02-18T14:33:15.030Z,97114.66
2019-02-18T14:36:13.638Z,97109.16
2019-02-18T14:39:08.346Z,97114.25
2019-02-18T14:42:05.918Z,97114.73
2019-02-18T14:45:01.409Z,97112.67
2019-02-18T14:47:58.041Z,97119.04
2019-02-18T14:50:56.709Z,97113.16
2019-02-18T14:53:50.813Z,97108.53
2019-02-18T14:56:47.472Z,97106.48
2019-02-18T14:59:41.772Z,97105.70
2019-02-18T15:02:38.335Z,97100.69
2019-02-18T15:05:36.008Z,97098.21
2019-02-18T15:08:31.556Z,97099.98
2019-02-18T15:11:28.268Z,97095.06
2019-02-18T15:14:24.805Z,97096.55
2019-02-18T15:17:20.729Z,97093.83
2019-02-18T15:20:17.375Z,97084.67
2019-02-18T15:23:12.754Z,97083.94
2019-02-18T15:26:09.498Z,97078.01
2019-02-18T15:29:05.222Z,97073.79
2019-02-18T15:32:02.286Z,97073.36
2019-02-18T15:35:00.249Z,97070.38
2019-02-18T15:38:02.649Z,97071.20
2019-02-18T15:41:00.281Z,97074.61
2019-02-18T15:43:55.826Z,97072.06
2019-02-18T15:46:52.301Z,97065.66
2019-02-18T15:49:47.890Z,97068.17
2019-02-18T15:52:44.486Z,97064.27
2019-02-18T15:55:41.106Z,97062.48
2019-02-18T15:58:36.557Z,97053.03
2019-02-18T16:01:33.143Z,97058.83
2019-02-18T16:04:28.642Z,97057.02
2019-02-18T16:07:25.109Z,97059.44
2019-02-18T16:10:20.111Z,97057.59
2019-02-18T16:13:17.015Z,97052.80
2019-02-18T16:16:14.353Z,97057.32
2019-02-18T16:19:09.334Z,97058.00
2019-02-18T16:22:06.091Z,97061.11
2019-02-18T16:25:02.785Z,97066.78
2019-02-18T16:27:59.298Z,97055.11
2019-02-18T16:30:55.866Z,97052.36
2019-02-18T16:33:51.506Z,97058.47
2019-02-18T16:36:48.198Z,97059.52
2019-02-18T16:39:44.682Z,97061.86
2019-02-18T16:42:58.896Z,97061.25
2019-02-18T16:45:48.930Z,97063.98
2019-02-18T16:48:44.583Z,97061.65
2019-02-18T16:51:40.589Z,97063.14
2019-02-18T16:54:36.990Z,97065.09
2019-02-18T16:57:34.915Z,97065.35
2019-02-18T17:00:43.850Z,97064.77
2019-02-18T17:03:40.357Z,97068.34
2019-02-18T17:06:37.919Z,97069.69
2019-02-18T17:09:36.225Z,97064.27
2019-02-18T17:12:32.772Z,97068.16
2019-02-18T17:15:28.031Z,97068.56
2019-02-18T17:18:24.865Z,97070.32
2019-02-18T17:21:20.585Z,97072.44
2019-02-18T17:24:17.514Z,97079.89
2019-02-18T17:27:13.858Z,97085.39
2019-02-18T17:30:09.395Z,97080.69
2019-02-18T17:33:06.074Z,97076.84
2019-02-18T17:36:02.752Z,97086.52
2019-02-18T17:38:59.479Z,97088.61
2019-02-18T17:41:56.030Z,97083.11
2019-02-18T17:44:54.678Z,97079.32
2019-02-18T17:47:50.871Z,97066.75
2019-02-18T17:50:47.676Z,97066.05
2019-02-18T17:53:44.047Z,97063.62
2019-02-18T17:56:40.803Z,97065.28
2019-02-18T17:59:37.403Z,97071.58
2019-02-18T18:02:34.130Z,97065.39
2019-02-18T18:05:30.718Z,97070.97
2019-02-18T18:08:27.351Z,97071.45
2019-02-18T18:11:23.239Z,97072.86
2019-02-18T18:14:19.806Z,97068.45
2019-02-18T18:17:16.244Z,97069.05
2019-02-18T18:20:12.270Z,97067.97
2019-02-18T18:23:08.054Z,97066.94
2019-02-18T18:26:04.834Z,97069.63
2019-02-18T18:29:01.337Z,97073.78
2019-02-18T18:31:58.016Z,97062.78
2019-02-18T18:34:54.546Z,97082.88
2019-02-18T18:37:51.645Z,97064.09
2019-02-18T18:40:53.466Z,97069.14
2019-02-18T18:43:49.493Z,97069.16
2019-02-18T18:46:45.544Z,97063.80
2019-02-18T18:49:42.662Z,97063.47
2019-02-18T18:52:38.465Z,97053.23
2019-02-18T18:55:47.419Z,97054.59
2019-02-18T18:58:51.038Z,97053.56
2019-02-18T19:01:47.738Z,97058.69
2019-02-18T19:04:45.164Z,97053.45
2019-02-18T19:07:42.456Z,97049.11
2019-02-18T19:10:38.991Z,97050.02
2019-02-18T19:13:41.951Z,97052.18
2019-02-18T19:16:31.368Z,97063.00
2019-02-18T19:19:27.171Z,97063.53
2019-02-18T19:22:24.030Z,97067.20
2019-02-18T19:25:19.562Z,97076.46
2019-02-18T19:28:16.189Z,97074.83
2019-02-18T19:31:11.928Z,97075.05
2019-02-18T19:34:07.851Z,97074.57
2019-02-18T19:37:04.692Z,97070.81
2019-02-18T19:40:00.602Z,97076.15
2019-02-18T19:42:58.380Z,97076.84
2019-02-18T19:45:55.156Z,97074.19
2019-02-18T19:48:51.882Z,97082.39
2019-02-18T19:51:49.040Z,97075.38
2019-02-18T19:54:44.226Z,97078.78
2019-02-18T19:57:40.998Z,97084.66
2019-02-18T20:00:36.474Z,97078.51
2019-02-18T20:03:34.199Z,97084.26
2019-02-18T20:06:30.939Z,97089.11
2019-02-18T20:09:27.682Z,97081.92
2019-02-18T20:12:24.373Z,97086.20
2019-02-18T20:15:20.155Z,97083.46
2019-02-18T20:18:17.584Z,97092.80
2019-02-18T20:21:13.730Z,97085.88
2019-02-18T20:24:10.617Z,97086.52
2019-02-18T20:27:07.360Z,97093.42
2019-02-18T20:30:04.063Z,97091.12
2019-02-18T20:33:00.796Z,97092.56
2019-02-18T20:35:56.487Z,97086.18
2019-02-18T20:38:54.469Z,97093.40
2019-02-18T20:41:51.615Z,97093.27
2019-02-18T20:44:47.888Z,97088.84
2019-02-18T20:47:44.769Z,97089.42
2019-02-18T20:50:41.571Z,97094.29
2019-02-18T20:53:43.303Z,97096.49
2019-02-18T20:56:39.187Z,97095.43
2019-02-18T20:59:36.930Z,97094.37
2019-02-18T21:02:33.545Z,97105.00
2019-02-18T21:05:29.000Z,97093.94
2019-02-18T21:08:25.795Z,97096.27
2019-02-18T21:11:32.036Z,97088.64
2019-02-18T21:14:32.785Z,97092.70
2019-02-18T21:17:28.748Z,97095.87
2019-02-18T21:20:25.544Z,97094.94
2019-02-18T21:23:22.538Z,97099.38
2019-02-18T21:26:18.096Z,97094.63
2019-02-18T21:29:15.048Z,97088.83
2019-02-18T21:32:10.634Z,97087.58
2019-02-18T21:35:07.196Z,97087.58
2019-02-18T21:38:04.038Z,97083.64
2019-02-18T21:41:00.570Z,97082.63
2019-02-18T21:43:58.146Z,97086.62
2019-02-18T21:46:54.231Z,97095.31
2019-02-18T21:49:53.002Z,97092.53
2019-02-18T21:52:48.513Z,97091.12
2019-02-18T21:55:44.112Z,97093.16
2019-02-18T21:58:40.565Z,97094.66
2019-02-18T22:01:36.162Z,97089.59
2019-02-18T22:04:33.308Z,97092.78
2019-02-18T22:07:28.814Z,97091.77
2019-02-18T22:10:26.571Z,97102.07
2019-02-18T22:13:22.128Z,97102.38
2019-02-18T22:16:18.206Z,97095.55
2019-02-18T22:19:14.319Z,97100.06
2019-02-18T22:22:10.129Z,97098.67
2019-02-18T22:25:06.662Z,97091.03
2019-02-18T22:28:02.179Z,97092.18
2019-02-18T22:31:01.076Z,97092.91
2019-02-18T22:33:54.642Z,97087.84
2019-02-18T22:36:51.155Z,97092.28
2019-02-18T22:39:47.897Z,97093.53
2019-02-18T22:42:43.924Z,97094.77
2019-02-18T22:45:40.363Z,97092.14
2019-02-18T22:48:37.127Z,97091.95
2019-02-18T22:51:34.662Z,97089.32
2019-02-18T22:54:30.248Z,97094.62
2019-02-18T22:57:26.803Z,97089.17
2019-02-18T23:00:38.001Z,97095.41
2019-02-18T23:03:34.502Z,97093.23
2019-02-18T23:06:30.251Z,97095.72
2019-02-18T23:09:26.970Z,97101.02
2019-02-18T23:12:23.502Z,97099.14
2019-02-18T23:15:19.300Z,97092.77
2019-02-18T23:18:15.929Z,97089.33
2019-02-18T23:21:12.346Z,97092.61
2019-02-18T23:24:20.502Z,97085.97
2019-02-18T23:27:27.882Z,97089.33
2019-02-18T23:30:24.451Z,97100.09
2019-02-18T23:33:19.934Z,97103.06
2019-02-18T23:36:17.025Z,97107.88
2019-02-18T23:39:12.563Z,97110.06
2019-02-18T23:42:10.287Z,97107.39
2019-02-18T23:45:06.950Z,97113.78
2019-02-18T23:48:02.695Z,97122.67
2019-02-18T23:51:01.389Z,97114.86
2019-02-18T23:53:56.798Z,97118.90
2019-02-18T23:56:53.678Z,97115.64
2019-02-18T23:59:48.143Z,97112.21
